Time;durP1;ratioP1;P1;durP2;ratioP2;P2;SDS_P1;SDS_P2;PMS_P1;PMS_P2;Temp;Humidity;BMP_temperature;BMP_pressure;BME280_temperature;BME280_humidity;BME280_pressure;Samples;Min_cycle;Max_cycle;Signal;HPM_P1;HPM_P2
2022/04/05 00:02:21;;;;;;;9.70;8.80;;;7.50;99.90;;;;;;5004577;28;20183;-71
2022/04/05 00:04:47;;;;;;;9.50;8.70;;;7.40;99.90;;;;;;5004657;28;20454;-71
2022/04/05 00:07:13;;;;;;;8.90;8.10;;;7.40;99.90;;;;;;5004368;28;20211;-71
2022/04/05 00:09:39;;;;;;;10.10;9.20;;;7.50;99.90;;;;;;5004614;28;20552;-72
2022/04/05 00:12:05;;;;;;;10.37;8.83;;;7.40;99.90;;;;;;5004795;28;20665;-72
2022/04/05 00:14:31;;;;;;;9.60;8.70;;;7.20;99.90;;;;;;5004841;28;20203;-72
2022/04/05 00:16:56;;;;;;;10.50;9.30;;;7.20;99.90;;;;;;5004894;28;20416;-72
2022/04/05 00:19:22;;;;;;;11.17;8.57;;;7.40;99.90;;;;;;5004650;28;20187;-71
2022/04/05 00:21:49;;;;;;;9.60;8.70;;;7.40;99.90;;;;;;5004854;28;20602;-72
2022/04/05 00:24:17;;;;;;;9.40;8.50;;;7.50;99.90;;;;;;5001716;28;20571;-72
2022/04/05 00:26:43;;;;;;;11.10;10.00;;;7.70;99.90;;;;;;5004442;28;20465;-72
2022/04/05 00:29:09;;;;;;;10.20;9.13;;;7.50;99.90;;;;;;5004735;28;20734;-71
2022/04/05 00:31:34;;;;;;;10.40;9.40;;;7.30;99.90;;;;;;5004292;28;20180;-71
2022/04/05 00:34:00;;;;;;;10.13;9.13;;;7.20;99.90;;;;;;5003901;28;20564;-72
2022/04/05 00:36:26;;;;;;;9.30;8.20;;;7.20;99.90;;;;;;5004513;28;20738;-72
2022/04/05 00:38:51;;;;;;;9.10;8.30;;;7.20;99.90;;;;;;5004145;28;20179;-71
2022/04/05 00:41:17;;;;;;;9.00;8.10;;;7.30;99.90;;;;;;5003851;28;20264;-71
2022/04/05 00:43:42;;;;;;;10.00;9.10;;;7.30;99.90;;;;;;4986526;28;20246;-72
2022/04/05 00:46:08;;;;;;;10.20;8.60;;;7.40;99.90;;;;;;5003824;28;20271;-71
2022/04/05 00:48:49;;;;;;;11.77;9.33;;;7.50;99.90;;;;;;5004087;28;20186;-71
2022/04/05 00:51:16;;;;;;;9.60;8.80;;;7.60;99.90;;;;;;4986353;28;20176;-71
2022/04/05 00:53:47;;;;;;;9.17;8.30;;;7.50;99.90;;;;;;5003348;28;20822;-72
2022/04/05 00:56:18;;;;;;;9.00;8.20;;;7.50;99.90;;;;;;5003968;28;20492;-71
2022/04/05 00:58:49;;;;;;;9.17;8.27;;;7.40;99.90;;;;;;5003728;28;20473;-72
2022/04/05 01:01:18;;;;;;;9.00;8.20;;;7.40;99.90;;;;;;5003600;28;20932;-71
2022/04/05 01:03:49;;;;;;;8.77;7.87;;;7.40;99.90;;;;;;4985946;28;21071;-71
2022/04/05 01:06:22;;;;;;;8.70;7.97;;;7.50;99.90;;;;;;5003711;28;20807;-71
2022/04/05 01:08:49;;;;;;;11.30;8.90;;;7.50;99.90;;;;;;5003103;28;20502;-71
2022/04/05 01:11:14;;;;;;;9.13;8.33;;;7.40;99.90;;;;;;5003732;28;20458;-71
2022/04/05 01:13:40;;;;;;;8.77;7.97;;;7.30;99.90;;;;;;5003751;28;20418;-71
2022/04/05 01:16:06;;;;;;;9.53;8.67;;;7.40;99.90;;;;;;5002077;28;20180;-71
2022/04/05 01:18:33;;;;;;;9.37;8.23;;;7.30;99.90;;;;;;5003798;28;20466;-71
2022/04/05 01:20:59;;;;;;;9.97;9.00;;;7.50;99.90;;;;;;4985924;28;20418;-72
2022/04/05 01:23:25;;;;;;;9.07;8.20;;;7.40;99.90;;;;;;5002208;28;20474;-71
2022/04/05 01:25:51;;;;;;;9.10;8.30;;;7.40;99.90;;;;;;5003490;28;20433;-71
2022/04/05 01:28:17;;;;;;;10.40;8.47;;;7.50;99.90;;;;;;5003613;28;20172;-71
2022/04/05 01:30:43;;;;;;;9.90;8.67;;;7.50;99.90;;;;;;5003951;28;20829;-72
2022/04/05 01:33:09;;;;;;;9.10;8.20;;;7.50;99.90;;;;;;5003379;28;20418;-71
2022/04/05 01:35:34;;;;;;;8.90;8.10;;;7.50;99.90;;;;;;5003605;28;20204;-72
2022/04/05 01:38:03;;;;;;;8.20;7.50;;;7.50;99.90;;;;;;4984199;28;20423;-71
2022/04/05 01:40:28;;;;;;;9.60;8.70;;;7.50;99.90;;;;;;4985985;28;20822;-71
2022/04/05 01:42:54;;;;;;;8.93;8.03;;;7.70;99.90;;;;;;5003590;28;20516;-71
2022/04/05 01:45:20;;;;;;;9.83;8.80;;;7.40;99.90;;;;;;5004712;28;20266;-71
2022/04/05 01:47:47;;;;;;;11.97;8.80;;;7.40;99.90;;;;;;5007425;28;20542;-72
2022/04/05 01:50:12;;;;;;;9.87;8.97;;;7.30;99.90;;;;;;5007194;28;20172;-71
2022/04/05 01:52:38;;;;;;;9.47;8.57;;;7.30;99.90;;;;;;5006876;28;20441;-72
2022/04/05 01:55:05;;;;;;;9.07;8.13;;;7.40;99.90;;;;;;5006463;28;20293;-72
2022/04/05 01:57:31;;;;;;;9.60;8.27;;;7.50;99.90;;;;;;5006845;28;20180;-71
2022/04/05 01:59:57;;;;;;;8.90;8.00;;;7.50;99.90;;;;;;5007218;28;20978;-71
2022/04/05 02:02:22;;;;;;;9.20;8.07;;;7.60;99.90;;;;;;5007070;28;20416;-71
2022/04/05 02:04:48;;;;;;;9.80;8.90;;;7.50;99.90;;;;;;5007002;28;20807;-72
2022/04/05 02:07:15;;;;;;;9.77;8.80;;;7.30;99.90;;;;;;5006377;28;20711;-71
2022/04/05 02:09:42;;;;;;;8.70;8.00;;;7.40;99.90;;;;;;5006884;28;20696;-71
2022/04/05 02:12:09;;;;;;;9.77;8.47;;;7.40;99.90;;;;;;5007011;28;20420;-72
2022/04/05 02:14:35;;;;;;;9.50;8.60;;;7.30;99.90;;;;;;5006842;28;20436;-72
2022/04/05 02:17:01;;;;;;;10.17;9.27;;;7.20;99.90;;;;;;5006676;28;20446;-71
2022/04/05 02:19:27;;;;;;;9.00;8.20;;;7.10;99.90;;;;;;5006720;28;20787;-70
2022/04/05 02:21:52;;;;;;;9.73;8.83;;;7.10;99.90;;;;;;4988761;28;20198;-71
2022/04/05 02:24:18;;;;;;;11.70;9.57;;;7.10;99.90;;;;;;5005031;28;20290;-71
2022/04/05 02:26:43;;;;;;;10.20;8.80;;;7.20;99.90;;;;;;5006286;28;20267;-71
2022/04/05 02:29:09;;;;;;;10.20;9.13;;;7.20;99.90;;;;;;5006491;28;20186;-72
2022/04/05 02:31:35;;;;;;;9.63;8.47;;;7.10;99.90;;;;;;5006323;28;20395;-71
2022/04/05 02:34:00;;;;;;;9.10;8.30;;;7.20;99.90;;;;;;5006406;28;20192;-72
2022/04/05 02:36:26;;;;;;;10.13;9.13;;;7.10;99.90;;;;;;4988585;28;20571;-71
2022/04/05 02:38:52;;;;;;;10.80;9.70;;;7.10;99.90;;;;;;5006184;28;20180;-72
2022/04/05 02:41:17;;;;;;;9.43;8.57;;;7.10;99.90;;;;;;5006371;28;20187;-71
2022/04/05 02:43:44;;;;;;;9.80;8.90;;;7.10;99.90;;;;;;5006096;28;20583;-72
2022/04/05 02:46:11;;;;;;;9.80;8.97;;;7.10;99.90;;;;;;5006187;28;20203;-71
2022/04/05 02:48:43;;;;;;;10.13;9.13;;;7.30;99.90;;;;;;5006247;28;20416;-71
2022/04/05 02:51:15;;;;;;;11.37;9.47;;;7.20;99.90;;;;;;4988373;28;20458;-72
2022/04/05 02:53:41;;;;;;;9.97;8.93;;;7.20;99.90;;;;;;5005399;28;20831;-71
2022/04/05 02:56:07;;;;;;;9.27;8.37;;;7.00;99.90;;;;;;5004908;28;20418;-72
2022/04/05 02:58:35;;;;;;;10.90;9.90;;;7.20;99.90;;;;;;4988070;28;20434;-71
2022/04/05 03:01:01;;;;;;;12.53;8.40;;;7.30;99.90;;;;;;5005884;28;20415;-71
2022/04/05 03:03:26;;;;;;;9.30;8.37;;;7.40;99.90;;;;;;5005508;28;20949;-71
2022/04/05 03:05:52;;;;;;;9.30;8.50;;;7.40;99.90;;;;;;5005821;28;20420;-72
2022/04/05 03:08:17;;;;;;;8.73;7.93;;;7.20;99.90;;;;;;5005444;28;20276;-71
2022/04/05 03:10:43;;;;;;;10.07;9.07;;;7.20;99.90;;;;;;5005553;28;20172;-72
2022/04/05 03:13:09;;;;;;;10.87;9.60;;;7.10;99.90;;;;;;5005588;28;20553;-71
2022/04/05 03:15:34;;;;;;;10.83;9.83;;;7.30;99.90;;;;;;5004744;28;20206;-73
2022/04/05 03:18:00;;;;;;;9.07;8.30;;;7.40;99.90;;;;;;5005385;28;20222;-71
2022/04/05 03:20:26;;;;;;;10.10;8.50;;;7.40;99.90;;;;;;5005573;28;20275;-71
2022/04/05 03:22:55;;;;;;;11.10;8.90;;;7.40;99.90;;;;;;5005453;28;20176;-71
2022/04/05 03:25:22;;;;;;;9.60;8.70;;;7.40;99.90;;;;;;5004095;28;20295;-71
2022/04/05 03:27:48;;;;;;;10.57;9.57;;;7.30;99.90;;;;;;5005402;28;20426;-71
2022/04/05 03:30:17;;;;;;;9.70;8.80;;;7.40;99.90;;;;;;5005432;28;20867;-72
2022/04/05 03:32:43;;;;;;;9.40;8.50;;;7.60;99.90;;;;;;5005277;28;20403;-72
2022/04/05 03:35:09;;;;;;;8.23;7.43;;;7.60;99.90;;;;;;5005073;28;20529;-71
2022/04/05 03:37:35;;;;;;;11.17;8.83;;;7.50;99.90;;;;;;5005407;28;20551;-72
2022/04/05 03:40:01;;;;;;;8.57;7.77;;;7.40;99.90;;;;;;5004923;28;20184;-72
2022/04/05 03:42:27;;;;;;;9.80;8.93;;;7.40;99.90;;;;;;5005539;28;20403;-72
2022/04/05 03:44:53;;;;;;;9.70;8.70;;;7.60;99.90;;;;;;5005050;28;20478;-72
2022/04/05 03:47:19;;;;;;;9.33;8.23;;;7.60;99.90;;;;;;5005062;28;20254;-72
2022/04/05 03:49:44;;;;;;;10.47;9.47;;;7.60;99.90;;;;;;5005586;28;20232;-71
2022/04/05 03:52:10;;;;;;;15.90;10.00;;;7.60;99.90;;;;;;5005165;28;20467;-72
2022/04/05 03:54:36;;;;;;;10.47;9.30;;;7.80;99.90;;;;;;5004528;28;20505;-72
2022/04/05 03:57:02;;;;;;;8.77;7.97;;;7.60;99.90;;;;;;5004755;28;20837;-72
2022/04/05 03:59:28;;;;;;;10.07;9.10;;;7.50;99.90;;;;;;5005151;28;20184;-71
2022/04/05 04:01:54;;;;;;;9.67;8.70;;;7.40;99.90;;;;;;5004763;28;20428;-71
2022/04/05 04:04:20;;;;;;;10.13;9.13;;;7.50;99.90;;;;;;5004887;28;20506;-72
2022/04/05 04:06:46;;;;;;;8.80;7.90;;;7.70;99.90;;;;;;5005034;28;20461;-72
2022/04/05 04:09:11;;;;;;;9.63;8.60;;;7.70;99.90;;;;;;5005201;28;20179;-72
2022/04/05 04:11:40;;;;;;;10.30;8.10;;;7.60;99.90;;;;;;5005738;28;20554;-71
2022/04/05 04:14:06;;;;;;;9.37;7.50;;;7.50;99.90;;;;;;5029806;23;20238;-72
2022/04/05 04:16:32;;;;;;;9.63;8.47;;;7.50;99.90;;;;;;5023742;28;20420;-72
2022/04/05 04:18:57;;;;;;;8.47;7.50;;;7.60;99.90;;;;;;5023085;28;20870;-72
2022/04/05 04:21:23;;;;;;;10.07;8.43;;;7.50;99.90;;;;;;5023623;28;20625;-72
2022/04/05 04:23:48;;;;;;;8.37;7.57;;;7.30;99.90;;;;;;5022231;28;20683;-71
2022/04/05 04:26:14;;;;;;;8.20;7.40;;;7.20;99.90;;;;;;5007510;28;20179;-72
2022/04/05 04:28:40;;;;;;;8.67;7.87;;;7.40;99.90;;;;;;5032911;28;20641;-72
2022/04/05 04:31:05;;;;;;;9.27;8.47;;;7.40;99.90;;;;;;5028696;28;20180;-73
2022/04/05 04:33:31;;;;;;;9.03;8.23;;;7.40;99.90;;;;;;5033043;28;20238;-73
2022/04/05 04:35:58;;;;;;;9.63;8.67;;;7.40;99.90;;;;;;5032810;28;20180;-72
2022/04/05 04:38:23;;;;;;;9.10;8.13;;;7.30;99.90;;;;;;5032960;28;20261;-72
2022/04/05 04:40:50;;;;;;;10.10;8.77;;;7.30;99.90;;;;;;5032145;28;20401;-73
2022/04/05 04:43:17;;;;;;;9.33;8.53;;;7.20;99.90;;;;;;5032674;28;20309;-72
2022/04/05 04:45:43;;;;;;;10.43;8.70;;;7.30;99.90;;;;;;5032962;28;20430;-72
2022/04/05 04:48:08;;;;;;;9.30;8.40;;;7.30;99.90;;;;;;5034340;28;20492;-72
2022/04/05 04:50:34;;;;;;;9.03;8.20;;;7.00;99.90;;;;;;5033144;28;20892;-72
2022/04/05 04:52:59;;;;;;;9.43;8.53;;;7.10;99.90;;;;;;5032971;28;20567;-73
2022/04/05 04:55:25;;;;;;;10.27;9.37;;;7.30;99.90;;;;;;5032329;28;20226;-73
2022/04/05 04:57:51;;;;;;;10.63;9.53;;;7.40;99.90;;;;;;5032783;28;20177;-73
2022/04/05 05:00:17;;;;;;;12.17;9.67;;;7.40;99.90;;;;;;5032404;28;20466;-72
2022/04/05 05:02:50;;;;;;;12.97;9.73;;;7.20;99.90;;;;;;5032772;28;20180;-70
2022/04/05 05:05:17;;;;;;;10.70;9.70;;;7.20;99.90;;;;;;5032482;28;20449;-72
2022/04/05 05:07:44;;;;;;;10.57;9.57;;;7.20;99.90;;;;;;5032656;28;20494;-72
2022/04/05 05:10:11;;;;;;;10.50;9.40;;;7.30;99.90;;;;;;5032260;28;20419;-72
2022/04/05 05:12:40;;;;;;;10.63;9.27;;;7.30;99.90;;;;;;5031911;28;20911;-72
2022/04/05 05:15:08;;;;;;;9.37;8.57;;;7.40;99.90;;;;;;5032746;28;20521;-71
2022/04/05 05:17:34;;;;;;;10.83;9.73;;;7.50;99.90;;;;;;5014793;28;20429;-71
2022/04/05 05:20:00;;;;;;;11.20;10.20;;;7.50;99.90;;;;;;5032105;28;20412;-72
2022/04/05 05:22:25;;;;;;;11.50;9.30;;;7.50;99.90;;;;;;5032435;28;20897;-72
2022/04/05 05:24:51;;;;;;;10.10;9.03;;;7.50;99.90;;;;;;5030487;28;20212;-72
2022/04/05 05:27:16;;;;;;;11.00;9.63;;;7.40;99.90;;;;;;5032415;28;20171;-72
2022/04/05 05:29:42;;;;;;;10.67;9.40;;;7.40;99.90;;;;;;5032755;28;20427;-72
2022/04/05 05:32:08;;;;;;;10.43;9.53;;;7.40;99.90;;;;;;5032955;28;20169;-71
2022/04/05 05:34:40;;;;;;;10.63;9.57;;;7.40;99.90;;;;;;5034809;28;20203;-72
2022/04/05 05:37:05;;;;;;;11.37;10.27;;;7.20;99.90;;;;;;5015576;28;20457;-72
2022/04/05 05:39:32;;;;;;;10.03;8.60;;;7.40;99.90;;;;;;5032039;28;20435;-72
2022/04/05 05:41:58;;;;;;;9.80;8.80;;;7.30;99.90;;;;;;5032854;28;20214;-72
2022/04/05 05:44:24;;;;;;;10.83;9.70;;;7.30;99.90;;;;;;5033750;28;20450;-73
2022/04/05 05:46:50;;;;;;;10.13;9.13;;;7.10;99.90;;;;;;5033952;28;20164;-72
2022/04/05 05:49:16;;;;;;;11.10;9.60;;;7.30;99.90;;;;;;5034093;28;20865;-72
2022/04/05 05:51:42;;;;;;;10.17;8.27;;;7.40;99.90;;;;;;5033421;28;20410;-73
2022/04/05 05:54:07;;;;;;;10.50;8.40;;;7.20;99.90;;;;;;5032684;28;20199;-73
2022/04/05 05:56:33;;;;;;;9.77;8.87;;;7.30;99.90;;;;;;5032308;28;20210;-72
2022/04/05 05:58:59;;;;;;;10.17;9.10;;;7.30;99.90;;;;;;5032478;28;20218;-73
2022/04/05 06:01:24;;;;;;;11.67;10.57;;;7.40;99.90;;;;;;5032093;28;20279;-72
2022/04/05 06:03:50;;;;;;;10.67;9.60;;;7.40;99.90;;;;;;5032319;28;20242;-72
2022/04/05 06:06:16;;;;;;;10.80;9.77;;;7.30;99.90;;;;;;5033517;28;20299;-73
2022/04/05 06:08:42;;;;;;;10.83;9.00;;;7.10;99.90;;;;;;5033414;28;20465;-72
2022/04/05 06:11:08;;;;;;;8.87;8.07;;;7.00;99.90;;;;;;5032638;28;20408;-72
2022/04/05 06:13:34;;;;;;;12.10;10.10;;;7.10;99.90;;;;;;5032380;28;20212;-72
2022/04/05 06:16:00;;;;;;;11.10;10.10;;;7.20;99.90;;;;;;5031469;28;20457;-72
2022/04/05 06:18:26;;;;;;;10.67;8.90;;;7.10;99.90;;;;;;5033049;28;20168;-71
2022/04/05 06:20:51;;;;;;;10.23;9.17;;;7.00;99.90;;;;;;5032094;28;20732;-69
2022/04/05 06:23:17;;;;;;;9.50;8.00;;;7.20;99.90;;;;;;5031619;28;20195;-69
2022/04/05 06:25:43;;;;;;;10.13;9.13;;;7.20;99.90;;;;;;5030372;28;20172;-71
2022/04/05 06:28:09;;;;;;;10.27;9.27;;;7.40;99.90;;;;;;5031718;28;20227;-71
2022/04/05 06:30:37;;;;;;;10.40;9.40;;;7.40;99.90;;;;;;5031593;28;20173;-71
2022/04/05 06:33:05;;;;;;;9.77;8.80;;;7.20;99.90;;;;;;5033396;28;20513;-70
2022/04/05 06:35:31;;;;;;;11.20;10.10;;;7.10;99.90;;;;;;5034914;28;20873;-71
2022/04/05 06:37:56;;;;;;;10.30;9.13;;;7.20;99.90;;;;;;5035016;28;20438;-70
2022/04/05 06:40:22;;;;;;;9.63;8.73;;;7.30;99.90;;;;;;5034718;28;20171;-70
2022/04/05 06:42:48;;;;;;;9.80;8.90;;;7.20;99.90;;;;;;5034777;28;20641;-70
2022/04/05 06:45:17;;;;;;;10.77;9.33;;;7.20;99.90;;;;;;5034954;28;20201;-70
2022/04/05 06:47:43;;;;;;;10.30;9.30;;;7.20;99.90;;;;;;5035608;28;20163;-70
2022/04/05 06:50:10;;;;;;;10.63;8.53;;;7.30;99.90;;;;;;5034518;28;20407;-72
2022/04/05 06:52:38;;;;;;;10.60;9.60;;;7.30;99.90;;;;;;5034563;28;20164;-72
2022/04/05 06:55:05;;;;;;;10.93;9.43;;;7.30;99.90;;;;;;5033939;28;20469;-69
2022/04/05 06:57:30;;;;;;;8.13;7.30;;;7.20;99.90;;;;;;5034547;28;20423;-69
2022/04/05 06:59:56;;;;;;;10.33;9.23;;;7.20;99.90;;;;;;5035424;28;20888;-71
2022/04/05 07:02:22;;;;;;;9.63;8.63;;;7.40;99.90;;;;;;5034514;28;20181;-69
2022/04/05 07:04:48;;;;;;;10.07;8.63;;;7.40;99.90;;;;;;5034490;28;20193;-71
2022/04/05 07:07:14;;;;;;;9.53;8.63;;;7.30;99.90;;;;;;5011706;28;20649;-71
2022/04/05 07:09:40;;;;;;;9.50;8.50;;;7.40;99.90;;;;;;5027276;28;20459;-70
2022/04/05 07:12:08;;;;;;;9.33;8.37;;;7.40;99.90;;;;;;5016597;28;20163;-70
2022/04/05 07:14:34;;;;;;;10.70;9.60;;;7.50;99.90;;;;;;5034058;28;20213;-70
2022/04/05 07:17:00;;;;;;;10.70;9.60;;;7.60;99.90;;;;;;5034355;28;20454;-70
2022/04/05 07:19:25;;;;;;;10.03;9.00;;;7.70;99.90;;;;;;5034456;28;20209;-72
2022/04/05 07:21:51;;;;;;;7.87;6.90;;;7.70;99.90;;;;;;5034270;28;20188;-70
2022/04/05 07:24:18;;;;;;;9.37;8.47;;;7.50;99.90;;;;;;5033281;28;20213;-71
2022/04/05 07:26:44;;;;;;;8.17;7.37;;;7.70;99.90;;;;;;5015886;28;20164;-71
2022/04/05 07:29:10;;;;;;;8.23;7.50;;;7.80;99.90;;;;;;5034253;28;20425;-70
2022/04/05 07:31:36;;;;;;;9.80;8.30;;;7.80;99.90;;;;;;5034518;28;20543;-70
2022/04/05 07:34:04;;;;;;;9.07;7.93;;;7.70;99.90;;;;;;5034003;28;20435;-69
2022/04/05 07:36:31;;;;;;;8.07;7.27;;;7.70;99.90;;;;;;5034192;28;20175;-69
2022/04/05 07:38:57;;;;;;;8.00;7.20;;;7.70;99.90;;;;;;5033817;28;20406;-69
2022/04/05 07:41:23;;;;;;;10.53;9.53;;;7.70;99.90;;;;;;5033715;28;20430;-70
2022/04/05 07:43:49;;;;;;;7.17;5.70;;;7.80;99.90;;;;;;5032977;28;20462;-70
2022/04/05 07:46:15;;;;;;;8.77;7.97;;;7.70;99.90;;;;;;5033450;28;20196;-69
2022/04/05 07:48:41;;;;;;;8.37;7.60;;;7.60;99.90;;;;;;5033442;28;20401;-69
2022/04/05 07:51:07;;;;;;;8.87;7.50;;;7.70;99.90;;;;;;5032746;28;20538;-69
2022/04/05 07:53:33;;;;;;;8.83;7.73;;;7.90;99.90;;;;;;5033442;28;20182;-70
2022/04/05 07:55:59;;;;;;;8.10;6.80;;;7.90;99.90;;;;;;5033004;28;20434;-69
2022/04/05 07:58:25;;;;;;;7.80;6.57;;;7.90;99.90;;;;;;5033374;28;20401;-69
2022/04/05 08:00:51;;;;;;;8.43;7.63;;;8.00;99.90;;;;;;5033224;28;20405;-72
2022/04/05 08:03:17;;;;;;;8.67;7.03;;;8.10;99.90;;;;;;5033115;28;20426;-72
2022/04/05 08:05:43;;;;;;;10.40;7.77;;;8.00;99.90;;;;;;5014354;28;20274;-71
2022/04/05 08:08:09;;;;;;;9.57;8.03;;;8.20;99.90;;;;;;5033338;28;20407;-69
2022/04/05 08:10:35;;;;;;;8.00;7.20;;;8.40;99.90;;;;;;5032871;28;20402;-68
2022/04/05 08:13:01;;;;;;;7.47;6.57;;;8.60;99.90;;;;;;5032841;28;21206;-69
2022/04/05 08:15:27;;;;;;;8.50;7.57;;;8.70;99.90;;;;;;5033682;28;20157;-69
2022/04/05 08:17:53;;;;;;;9.83;7.70;;;8.80;99.90;;;;;;5033295;28;20171;-68
2022/04/05 08:20:19;;;;;;;9.27;8.27;;;8.80;99.90;;;;;;5033077;28;20404;-69
2022/04/05 08:22:46;;;;;;;8.30;7.33;;;9.00;99.90;;;;;;5032693;28;20170;-69
2022/04/05 08:25:16;;;;;;;7.40;6.80;;;8.90;99.90;;;;;;5031408;28;20461;-70
2022/04/05 08:27:43;;;;;;;8.30;7.50;;;8.90;99.90;;;;;;5033339;28;20788;-70
2022/04/05 08:30:12;;;;;;;8.40;6.43;;;8.70;99.90;;;;;;5032826;28;20466;-70
2022/04/05 08:32:42;;;;;;;7.43;6.63;;;8.80;99.90;;;;;;5032936;28;20455;-71
2022/04/05 08:35:13;;;;;;;7.50;6.67;;;8.90;99.90;;;;;;5032932;28;20468;-69
2022/04/05 08:37:40;;;;;;;7.50;6.77;;;9.00;99.90;;;;;;5033098;28;20385;-71
2022/04/05 08:40:07;;;;;;;7.03;6.43;;;9.10;99.90;;;;;;5032280;28;20544;-71
2022/04/05 08:42:37;;;;;;;8.50;6.90;;;9.20;99.90;;;;;;5033013;28;20408;-71
2022/04/05 08:45:06;;;;;;;7.87;6.47;;;9.10;99.90;;;;;;5032675;28;20480;-70
2022/04/05 08:47:34;;;;;;;7.87;7.07;;;9.00;99.90;;;;;;5033140;28;20766;-70
2022/04/05 08:50:02;;;;;;;7.93;6.33;;;8.80;99.90;;;;;;5031643;28;20489;-71
2022/04/05 08:52:28;;;;;;;8.07;6.90;;;9.00;99.90;;;;;;5033009;28;20405;-71
2022/04/05 08:54:55;;;;;;;7.70;6.93;;;9.30;99.90;;;;;;5031369;28;20459;-69
2022/04/05 08:57:21;;;;;;;8.37;6.53;;;9.30;99.90;;;;;;5032245;28;20649;-69
2022/04/05 08:59:46;;;;;;;7.20;6.10;;;9.60;99.90;;;;;;5032301;28;20489;-71
2022/04/05 09:02:14;;;;;;;7.07;6.37;;;9.50;99.90;;;;;;5032591;28;20169;-70
2022/04/05 09:04:39;;;;;;;7.27;6.57;;;9.70;99.90;;;;;;5032332;28;20634;-70
2022/04/05 09:07:19;;;;;;;8.87;6.67;;;10.00;99.90;;;;;;5032016;28;20430;-71
2022/04/05 09:09:44;;;;;;;8.50;6.10;;;10.20;99.90;;;;;;5032171;28;20160;-70
2022/04/05 09:12:17;;;;;;;7.30;5.50;;;10.20;99.90;;;;;;5032302;28;20867;-71
2022/04/05 09:14:43;;;;;;;7.70;6.30;;;10.10;99.90;;;;;;5031865;28;20271;-69
2022/04/05 09:17:12;;;;;;;6.23;5.63;;;10.10;99.90;;;;;;5030840;28;20496;-68
2022/04/05 09:19:42;;;;;;;6.87;5.60;;;9.80;99.90;;;;;;5030867;28;20418;-68
2022/04/05 09:22:09;;;;;;;7.40;6.10;;;9.90;99.90;;;;;;5032418;28;20420;-68
2022/04/05 09:24:37;;;;;;;5.93;5.33;;;9.60;99.90;;;;;;5030992;28;20465;-68
2022/04/05 09:27:04;;;;;;;7.47;6.40;;;9.90;99.90;;;;;;5032031;28;20444;-71
2022/04/05 09:29:51;;;;;;;6.23;5.63;;;10.10;99.90;;;;;;5032463;28;20452;-68
2022/04/05 09:32:37;;;;;;;5.87;5.27;;;10.20;99.90;;;;;;5031942;28;20393;-68
2022/04/05 09:35:06;;;;;;;5.17;4.67;;;10.20;99.90;;;;;;5031905;28;20436;-69
2022/04/05 09:37:36;;;;;;;5.60;5.10;;;10.20;99.90;;;;;;5032198;28;20414;-69
2022/04/05 09:40:20;;;;;;;6.90;6.27;;;10.10;99.90;;;;;;5031062;28;20471;-68
2022/04/05 09:43:10;;;;;;;6.53;4.50;;;10.20;99.90;;;;;;5031557;28;20387;-70
2022/04/05 09:45:58;;;;;;;7.20;5.63;;;10.30;99.90;;;;;;5014126;28;20454;-68
2022/04/05 09:48:27;;;;;;;5.47;4.97;;;10.20;99.90;;;;;;5032181;28;20395;-70
2022/04/05 09:51:05;;;;;;;6.40;5.60;;;10.30;99.90;;;;;;5032577;28;20421;-71
2022/04/05 09:53:43;;;;;;;7.33;5.57;;;10.20;99.90;;;;;;5033936;28;20418;-71
2022/04/05 09:56:26;;;;;;;5.43;4.90;;;10.30;99.90;;;;;;5032571;28;20407;-71
2022/04/05 09:58:56;;;;;;;5.67;5.03;;;10.20;99.90;;;;;;5031431;28;20402;-70
2022/04/05 10:01:27;;;;;;;6.73;6.13;;;10.20;99.90;;;;;;5021370;28;20421;-69
2022/04/05 10:03:59;;;;;;;7.43;5.70;;;10.20;99.90;;;;;;5032037;28;20495;-69
2022/04/05 10:06:26;;;;;;;5.20;4.70;;;10.30;99.90;;;;;;5033915;28;20409;-69
2022/04/05 10:08:52;;;;;;;7.90;5.47;;;10.50;99.90;;;;;;5034927;28;20791;-70
2022/04/05 10:11:19;;;;;;;6.30;5.70;;;10.20;99.90;;;;;;5035901;28;20406;-70
2022/04/05 10:13:44;;;;;;;5.80;5.30;;;10.10;99.90;;;;;;5059356;23;20863;-69
2022/04/05 10:16:12;;;;;;;5.90;5.40;;;10.30;99.90;;;;;;5036018;28;20401;-70
2022/04/05 10:18:38;;;;;;;6.40;5.60;;;10.40;99.90;;;;;;5034686;28;20168;-70
2022/04/05 10:21:04;;;;;;;7.30;5.87;;;10.60;99.90;;;;;;5035632;28;20453;-71
2022/04/05 10:23:31;;;;;;;5.80;4.83;;;10.50;99.90;;;;;;5035135;28;20579;-70
2022/04/05 10:25:58;;;;;;;7.63;5.50;;;10.30;99.90;;;;;;5034253;28;20480;-71
2022/04/05 10:28:30;;;;;;;5.47;4.97;;;10.30;99.90;;;;;;5036058;28;20407;-71
2022/04/05 10:30:58;;;;;;;6.00;5.47;;;10.50;99.90;;;;;;5036036;28;20724;-70
2022/04/05 10:33:55;;;;;;;5.97;5.47;;;10.30;99.90;;;;;;5035767;28;20436;-70
2022/04/05 10:36:24;;;;;;;6.07;5.47;;;10.50;99.90;;;;;;5017623;28;20402;-71
2022/04/05 10:39:15;;;;;;;11.20;5.80;;;10.70;99.90;;;;;;5035398;28;20947;-70
2022/04/05 10:42:02;;;;;;;5.57;5.07;;;10.50;99.90;;;;;;5034930;28;20503;-70
2022/04/05 10:44:28;;;;;;;7.00;5.10;;;10.30;99.90;;;;;;5017568;28;20459;-71
2022/04/05 10:47:00;;;;;;;6.17;5.23;;;10.10;99.90;;;;;;5035145;28;20497;-71
2022/04/05 10:49:56;;;;;;;6.23;5.23;;;10.00;99.90;;;;;;5035143;28;20387;-71
2022/04/05 10:52:36;;;;;;;8.73;5.30;;;10.40;99.90;;;;;;5018250;28;20472;-71
2022/04/05 10:55:04;;;;;;;5.57;5.10;;;10.50;99.90;;;;;;5016936;28;20451;-72
2022/04/05 10:57:31;;;;;;;6.30;5.80;;;10.60;99.90;;;;;;5035251;28;20411;-69
2022/04/05 11:00:00;;;;;;;5.50;5.00;;;10.30;99.90;;;;;;5034996;28;20403;-71
2022/04/05 11:02:33;;;;;;;7.80;5.60;;;10.30;99.90;;;;;;5035345;28;20402;-72
2022/04/05 11:05:24;;;;;;;6.33;5.17;;;10.40;99.90;;;;;;5034900;28;20454;-71
2022/04/05 11:07:58;;;;;;;6.50;5.90;;;10.60;99.90;;;;;;5025590;28;20437;-70
2022/04/05 11:10:29;;;;;;;5.83;4.90;;;10.50;99.90;;;;;;5034419;28;20391;-71
2022/04/05 11:13:08;;;;;;;5.30;4.90;;;10.70;99.90;;;;;;5034735;28;20456;-70
2022/04/05 11:15:45;;;;;;;4.60;4.30;;;10.60;99.90;;;;;;5034763;28;20474;-70
2022/04/05 11:18:13;;;;;;;4.87;4.47;;;10.80;99.90;;;;;;5034080;28;20404;-70
2022/04/05 11:20:47;;;;;;;5.23;3.93;;;11.00;99.90;;;;;;5035061;28;20934;-70
2022/04/05 11:23:14;;;;;;;4.70;4.30;;;10.80;99.90;;;;;;5034788;28;20378;-71
2022/04/05 11:25:42;;;;;;;4.43;4.03;;;10.80;99.90;;;;;;5033337;28;20869;-71
2022/04/05 11:28:46;;;;;;;4.73;4.30;;;10.80;99.90;;;;;;5034266;28;20506;-71
2022/04/05 11:31:30;;;;;;;6.70;4.47;;;10.70;99.90;;;;;;5009535;28;20413;-72
2022/04/05 11:33:55;;;;;;;5.70;4.30;;;10.80;99.90;;;;;;5034330;28;20428;-70
2022/04/05 11:36:23;;;;;;;5.20;4.53;;;11.10;99.90;;;;;;5034323;28;20446;-71
2022/04/05 11:38:51;;;;;;;4.00;3.70;;;11.20;99.90;;;;;;5034385;28;20167;-72
2022/04/05 11:41:22;;;;;;;4.63;4.23;;;11.40;99.90;;;;;;5033810;28;20412;-73
2022/04/05 11:43:59;;;;;;;4.33;3.93;;;11.50;99.90;;;;;;5034015;28;20437;-71
2022/04/05 11:46:29;;;;;;;6.57;4.70;;;11.40;99.90;;;;;;5034013;28;20915;-71
2022/04/05 11:49:00;;;;;;;4.80;4.17;;;11.20;99.90;;;;;;5033799;28;20401;-70
2022/04/05 11:51:28;;;;;;;5.10;4.70;;;11.10;99.90;;;;;;5036320;28;20449;-70
2022/04/05 11:54:11;;;;;;;4.70;4.30;;;11.10;99.90;;;;;;5034073;28;20432;-70
2022/04/05 11:56:43;;;;;;;5.30;4.80;;;11.50;99.90;;;;;;5033285;28;20501;-71
2022/04/05 11:59:10;;;;;;;3.80;3.50;;;11.80;99.90;;;;;;5034226;28;20468;-71
2022/04/05 12:01:39;;;;;;;4.13;3.83;;;12.10;99.90;;;;;;5033748;28;20411;-71
2022/04/05 12:04:13;;;;;;;3.90;3.60;;;12.10;99.90;;;;;;5033777;28;20845;-71
2022/04/05 12:06:44;;;;;;;4.60;4.07;;;12.00;99.90;;;;;;5033682;28;20424;-71
2022/04/05 12:09:12;;;;;;;4.50;4.10;;;11.90;99.90;;;;;;5033642;28;20394;-70
2022/04/05 12:11:40;;;;;;;4.10;3.70;;;12.30;99.90;;;;;;5033250;28;20469;-70
2022/04/05 12:14:11;;;;;;;4.67;4.07;;;12.50;99.90;;;;;;5033422;28;20454;-70
2022/04/05 12:16:43;;;;;;;4.13;3.70;;;12.60;99.90;;;;;;5033580;28;20444;-70
2022/04/05 12:19:09;;;;;;;4.23;3.37;;;12.70;99.90;;;;;;5033409;28;20415;-71
2022/04/05 12:21:35;;;;;;;5.90;4.00;;;12.70;99.90;;;;;;5033332;28;20462;-72
2022/04/05 12:24:00;;;;;;;3.90;3.13;;;12.60;99.90;;;;;;5031964;28;20727;-73
2022/04/05 12:26:31;;;;;;;3.30;3.00;;;12.10;99.90;;;;;;5031921;28;20178;-71
2022/04/05 12:28:58;;;;;;;3.77;3.37;;;12.00;99.90;;;;;;5033437;28;20198;-74
2022/04/05 12:31:28;;;;;;;4.07;3.23;;;12.20;99.90;;;;;;5033510;28;20806;-71
2022/04/05 12:33:56;;;;;;;5.30;3.43;;;12.50;99.90;;;;;;5033468;28;20837;-72
2022/04/05 12:36:26;;;;;;;3.97;3.10;;;12.60;99.90;;;;;;5033909;28;20461;-69
2022/04/05 12:38:51;;;;;;;4.23;3.80;;;12.90;99.90;;;;;;5033671;28;20923;-70
2022/04/05 12:41:19;;;;;;;4.47;4.07;;;12.40;99.90;;;;;;5032909;28;20400;-71
2022/04/05 12:44:02;;;;;;;3.73;3.43;;;12.30;99.90;;;;;;5033378;28;20191;-71
2022/04/05 12:46:36;;;;;;;3.50;3.20;;;12.20;99.90;;;;;;5033563;28;20387;-71
2022/04/05 12:49:18;;;;;;;3.47;3.17;;;12.10;99.90;;;;;;5032963;28;20431;-70
2022/04/05 12:51:44;;;;;;;4.30;3.60;;;11.90;99.90;;;;;;5033398;28;20412;-71
2022/04/05 12:54:31;;;;;;;3.70;3.40;;;12.00;99.90;;;;;;5032907;28;20491;-72
2022/04/05 12:57:27;;;;;;;4.60;3.70;;;12.00;99.90;;;;;;5032588;28;20417;-71